x

Orange Beach - 44 Nm Se Of Mobile, Al (42012) Wave Buoy

9:50pm - Fri 18th Apr 2014 All times are CDT. -5 hours from GMT.

  • Sig Wave height 3.9ft
  • Swell Direction
  • Peak Period 4s
  • Average Period 4s
  • Wind
    25mph, 31mph gusts
  • Sea Temp 65°f
  • Air Temp 60°f
  • Sea Pressure 1017.2mb
  • Orange Beach - 44 Nm Se Of Mobile, Al
  • Orange Beach - 44 Nm Se Of Mobile, Al

More Historic Weather Station data

Upgrade to MSW Pro to gain access to the past 30 days of data for over 8000 Wavebouys and Weather Stations around the globe.

Join Pro

Comparision Forecast

View Surf forecast
   
Fri 04/18 9:50pm 4ft 4s 4s 25 31 mph 1017.2mb 65f 60f
8:50pm 4.5ft 8s 4s 27 31 mph 1016.5mb 66f 60f
7:50pm 4.5ft 7s 5s 25 29 mph 1016mb 66f 61f
6:50pm 4.5ft 7s 5s 25 31 mph 1015.3mb 66f 61f
5:50pm 5ft 7s 5s 25 31 mph 1015mb 66f 61f
4:50pm 6ft 8s 5s 25 29 mph 1014.8mb 66f 62f
3:50pm 6ft 8s 5s 22 27 mph 1015mb 65f 61f
2:50pm 6ft 7s 5s 25 31 mph 1014.6mb 65f 62f
1:50pm 6.5ft 8s 5s 27 31 mph 1014.6mb 65f 62f
12:50pm 7ft 7s 5s 27 31 mph 1014.6mb 65f 62f
11:50am 6.5ft 7s 5s 27 31 mph 1015.7mb 65f 62f
10:50am 7ft 7s 5s 34 40 mph 1015.1mb 66f 63f
9:50am 6ft 7s 5s 31 38 mph 1015.1mb 66f 63f
8:50am 6ft 7s 5s 31 38 mph 1015.3mb 65f 62f
7:50am 5.5ft 7s 5s 29 36 mph 1015.6mb 66f 62f
6:50am 6ft 7s 5s 29 34 mph 1015.4mb 66f 63f
5:50am 7ft 7s 5s 25 31 mph 1015.6mb 66f 63f
4:50am 6.5ft 7s 5s 27 31 mph 1015.6mb 66f 64f
3:50am 6ft 6s 5s 27 31 mph 1015.8mb 66f 64f
2:50am 5.5ft 7s 5s 27 31 mph 1016.8mb 66f 64f
1:50am 5ft 7s 5s 25 29 mph 1018.2mb 66f 63f
12:50am 4.5ft 7s 5s 25 29 mph 1019.4mb 66f 63f
Thu 04/17 11:50pm 4.5ft 7s 5s 25 29 mph 1020mb 66f 63f
10:50pm 4.5ft 8s 5s 20 22 mph 1021.2mb 66f 63f
9:50pm 5ft 8s 5s 20 22 mph 1021.4mb 66f 63f
8:50pm 4.5ft 7s 5s 20 25 mph 1020.8mb 66f 66f
7:50pm 4.5ft 8s 5s 18 20 mph 1020.1mb 66f 67f
6:50pm 4.5ft 8s 6s 9 11 mph 1020.1mb 66f 67f
5:50pm 4.5ft 7s 5s 9 11 mph 1020.7mb 66f 66f
4:50pm 4.5ft 6s 5s 13 18 mph 1021mb 66f 64f
3:50pm 5ft 6s 5s 13 18 mph 1020.7mb 66f 65f
2:50pm 5.5ft 8s 5s 18 20 mph 1021.2mb 66f 63f
1:50pm 5ft 6s 5s 18 22 mph 1022mb 66f 62f
12:50pm 6ft 7s 5s 20 25 mph 1022.3mb 66f 61f
11:50am 6ft 6s 5s 22 27 mph 1022.9mb 66f 61f
10:50am 6.5ft 8s 5s 27 29 mph 1023mb 66f 60f
9:50am 6.5ft 7s 5s 25 31 mph 1023.2mb 66f 61f
8:50am 6.5ft 7s 5s 25 29 mph 1022.4mb 66f 61f
7:50am 6ft 7s 5s 27 31 mph 1021.6mb 66f 61f
6:50am 6ft 6s 5s 27 31 mph 1020.9mb 66f 62f
5:50am 5ft 5s 5s 25 29 mph 1020.7mb 66f 63f
4:50am 4ft 5s 4s 20 27 mph 1020.5mb 66f 64f
3:50am 2.5ft 4s 4s 18 22 mph 1020.5mb 66f 64f
2:50am 2.5ft 5s 4s 18 20 mph 1020.7mb 66f 63f
1:50am 2.5ft 4s 4s 16 20 mph 1020.9mb 66f 63f
12:50am 2ft 3s 4s 13 18 mph 1021.1mb 66f 62f
Wed 04/16 11:50pm 2ft 5s 4s 13 18 mph 1021.3mb 66f 62f
10:50pm 2ft 5s 4s 13 16 mph 1021.8mb 66f 62f
9:50pm 2ft 5s 4s 13 16 mph 1021.3mb 66f 61f
8:50pm 2ft 5s 4s 9 11 mph 1021.2mb 66f 60f
7:50pm 2.5ft 5s 4s 7 9 mph 1021.1mb 66f 60f
6:50pm 2.5ft 6s 4s 11 13 mph 1020.9mb 66f 60f
5:50pm 2.5ft 6s 4s 11 16 mph 1020.8mb 66f 59f
4:50pm 2.5ft 5s 4s 13 16 mph 1020.6mb 66f 58f
3:50pm 2.5ft 5s 4s 11 16 mph 1021.1mb 66f 56f
2:50pm 2.5ft 6s 4s 11 18 mph 1021.9mb 66f 55f
1:50pm 3ft 6s 4s 16 18 mph 1022mb 66f 53f
12:50pm 3.5ft 6s 4s 16 20 mph 1022.8mb 66f 52f
11:50am 3.5ft 6s 4s 16 20 mph 1023.5mb 66f 52f
10:50am 3.5ft 6s 4s 16 22 mph 1023.9mb 66f 51f
9:50am 4.5ft 6s 4s 18 25 mph 1023.5mb 66f 49f
8:50am 4.5ft 6s 4s 20 27 mph 1023mb 66f 49f
7:50am 4.5ft 6s 4s 22 27 mph 1022.8mb 66f 49f
6:50am 4.5ft 5s 4s 25 31 mph 1022mb 66f 50f
5:50am 4ft 5s 4s 27 31 mph 1020.7mb 66f 51f
4:50am 3.5ft 4s 4s 27 34 mph 1019.6mb 66f 52f
3:50am 3.5ft 4s 4s 27 31 mph 1020.2mb 66f 52f
2:50am 3ft 4s 4s 25 31 mph 1020.5mb 66f 52f
1:50am 3.5ft 4s 4s 25 29 mph 1020.9mb 66f 53f
12:50am 3.5ft 4s 4s 27 34 mph 1020.5mb 66f 54f
Tue 04/15 11:50pm 3.5ft 4s 4s 27 34 mph 1020.4mb 67f 54f
10:50pm 3.5ft 4s 4s 27 31 mph 1020.7mb 67f 55f
9:50pm 3ft 4s 4s 25 31 mph 1020mb 67f 56f
8:50pm 2.5ft 4s 3s 22 29 mph 1019.5mb 67f 57f
7:50pm 2.5ft 3s 3s 20 22 mph 1018.7mb 67f 58f
6:50pm 2.5ft 4s 4s 20 25 mph 1017.9mb 67f 57f
5:50pm 2.5ft 4s 4s 18 22 mph 1017.2mb 67f 57f
4:50pm 3.5ft 4s 4s 25 29 mph 1016mb 67f 57f
3:50pm 4ft 4s 4s 25 31 mph 1015.5mb 67f 55f
2:50pm 4.5ft 4s 4s 22 29 mph 1016.5mb 67f 53f
1:50pm 5ft 4s 4s 25 31 mph 1016.7mb 67f 51f
12:50pm 5ft 5s 4s 29 38 mph 1016.6mb 67f 52f
11:50am 5ft 5s 4s 29 36 mph 1016mb 67f 53f
10:50am 5ft 4s 4s 27 34 mph 1015.2mb 67f 53f
9:50am 5ft 4s 4s 29 36 mph 1014.5mb 67f 53f
8:50am 5ft 4s 4s 31 38 mph 1013.2mb 67f 53f
7:50am 4.5ft 5s 4s 34 38 mph 1011.8mb 68f 55f
6:50am 4.5ft 5s 4s 34 38 mph 1010.5mb 68f 56f
5:50am 3.5ft 6s 4s 31 36 mph 1009.5mb 68f 58f
4:50am 3ft 6s 5s 13 16 mph 1008.3mb 68f 66f
3:50am 3.5ft 6s 5s 13 16 mph 1008.4mb 68f 67f